Time;durP1;ratioP1;P1;durP2;ratioP2;P2;SDS_P1;SDS_P2;PMS_P1;PMS_P2;Temp;Humidity;BMP_temperature;BMP_pressure;BME280_temperature;BME280_humidity;BME280_pressure;Samples;Min_cycle;Max_cycle;Signal;HPM_P1;HPM_P2
2022/07/02 00:00:22;;;;;;;12.10;5.88;;;13.00;57.30;;;;;;5011369;28;20217;-42
2022/07/02 00:02:56;;;;;;;10.90;5.75;;;13.00;57.20;;;;;;5011268;28;20204;-43
2022/07/02 00:05:29;;;;;;;8.43;4.97;;;13.10;57.30;;;;;;5010616;28;20197;-43
2022/07/02 00:08:00;;;;;;;10.40;4.95;;;13.10;57.30;;;;;;5011128;28;20562;-44
2022/07/02 00:10:31;;;;;;;10.32;5.20;;;13.10;57.30;;;;;;5011254;28;20221;-43
2022/07/02 00:13:02;;;;;;;10.48;4.90;;;13.10;57.30;;;;;;5011149;28;20200;-43
2022/07/02 00:15:33;;;;;;;7.60;4.90;;;13.10;57.30;;;;;;5011031;28;20711;-43
2022/07/02 00:18:06;;;;;;;8.77;5.10;;;13.10;57.30;;;;;;5011076;28;20212;-43
2022/07/02 00:20:37;;;;;;;10.18;5.15;;;13.20;57.40;;;;;;5024253;28;20222;-44
2022/07/02 00:23:08;;;;;;;7.82;4.78;;;13.20;57.30;;;;;;5021751;28;20595;-43
2022/07/02 00:25:42;;;;;;;10.82;5.32;;;13.20;57.30;;;;;;5011150;28;20223;-44
2022/07/02 00:28:15;;;;;;;7.95;4.70;;;13.30;57.40;;;;;;5011154;28;20679;-43
2022/07/02 00:30:49;;;;;;;8.93;4.95;;;13.30;57.30;;;;;;5011069;28;20228;-44
2022/07/02 00:33:22;;;;;;;7.25;4.70;;;13.30;57.30;;;;;;5011452;28;20201;-44
2022/07/02 00:35:53;;;;;;;8.63;4.38;;;13.30;57.30;;;;;;5010936;28;20225;-43
2022/07/02 00:38:24;;;;;;;10.98;5.88;;;13.30;57.40;;;;;;5010589;28;20577;-43
2022/07/02 00:40:55;;;;;;;11.82;5.40;;;13.30;57.30;;;;;;5010964;28;20221;-43
2022/07/02 00:43:26;;;;;;;8.18;4.95;;;13.40;57.40;;;;;;5010676;28;20208;-43
2022/07/02 00:45:59;;;;;;;6.93;4.50;;;13.40;57.40;;;;;;5012900;28;20227;-43
2022/07/02 00:48:32;;;;;;;10.43;4.70;;;13.40;57.40;;;;;;5010742;28;20200;-44
2022/07/02 00:51:02;;;;;;;8.52;4.88;;;13.40;57.40;;;;;;5010789;28;20216;-44
2022/07/02 00:53:33;;;;;;;7.60;4.40;;;13.40;57.40;;;;;;5010438;28;20201;-45
2022/07/02 00:56:04;;;;;;;7.20;4.55;;;13.40;57.40;;;;;;5010339;28;20221;-45
2022/07/02 00:58:35;;;;;;;8.15;4.45;;;13.50;57.40;;;;;;5010478;28;20205;-43
2022/07/02 01:01:06;;;;;;;7.70;4.55;;;13.50;57.40;;;;;;5010406;28;20213;-43
2022/07/02 01:03:39;;;;;;;7.20;4.20;;;13.50;57.40;;;;;;5010546;28;20209;-43
2022/07/02 01:06:10;;;;;;;10.65;5.13;;;13.50;57.40;;;;;;5010258;28;20719;-44
2022/07/02 01:11:30;;;;;;;7.32;4.55;;;13.50;57.40;;;;;;5010309;28;20754;-44
2022/07/02 01:14:01;;;;;;;8.77;4.70;;;13.60;57.40;;;;;;5010338;28;20193;-43
2022/07/02 01:16:32;;;;;;;8.70;4.97;;;13.60;57.40;;;;;;5009963;28;20628;-43
2022/07/02 01:19:06;;;;;;;8.15;4.45;;;13.60;57.30;;;;;;5010344;28;20193;-46
2022/07/02 01:21:39;;;;;;;6.82;4.30;;;13.70;57.40;;;;;;5010177;28;20212;-45
2022/07/02 01:24:12;;;;;;;7.43;4.47;;;13.70;57.30;;;;;;5009845;28;20196;-43
2022/07/02 01:26:42;;;;;;;7.35;4.72;;;13.70;57.40;;;;;;5009630;28;20200;-43
2022/07/02 01:29:13;;;;;;;7.50;4.65;;;13.70;57.40;;;;;;5009850;28;20208;-44
2022/07/02 01:31:44;;;;;;;7.38;4.22;;;13.80;57.40;;;;;;5009684;28;20228;-44
2022/07/02 01:34:14;;;;;;;7.60;4.18;;;13.80;57.40;;;;;;5015555;23;20225;-55
2022/07/02 01:36:45;;;;;;;7.00;4.18;;;13.80;57.40;;;;;;4990482;28;20225;-53
2022/07/02 01:39:18;;;;;;;7.38;4.25;;;13.80;57.40;;;;;;4990339;28;20202;-57
2022/07/02 01:41:48;;;;;;;7.88;4.30;;;13.90;57.40;;;;;;4990638;28;20233;-57
2022/07/02 01:44:19;;;;;;;8.10;4.88;;;13.80;57.30;;;;;;4990126;28;20197;-57
2022/07/02 01:46:50;;;;;;;8.05;4.55;;;13.90;57.40;;;;;;4990395;28;20205;-58
2022/07/02 01:49:21;;;;;;;6.82;4.20;;;13.90;57.30;;;;;;4990513;28;20204;-58
2022/07/02 01:51:51;;;;;;;7.30;4.28;;;13.90;57.30;;;;;;4991039;28;20218;-55
2022/07/02 01:54:24;;;;;;;9.05;4.82;;;14.00;57.40;;;;;;4990343;28;20209;-56
2022/07/02 01:56:55;;;;;;;7.38;4.22;;;14.00;57.30;;;;;;4990840;28;20711;-57
2022/07/02 01:59:26;;;;;;;7.63;4.47;;;14.00;57.20;;;;;;4990745;28;20216;-54
2022/07/02 02:01:56;;;;;;;7.18;4.22;;;14.00;57.20;;;;;;4990617;28;20591;-59
2022/07/02 02:04:27;;;;;;;8.23;4.40;;;14.10;57.20;;;;;;4990016;28;20198;-57
2022/07/02 02:06:58;;;;;;;8.38;4.22;;;14.10;57.20;;;;;;4989837;28;20205;-56
2022/07/02 02:09:31;;;;;;;9.40;4.70;;;14.20;57.20;;;;;;4989392;28;20217;-57
2022/07/02 02:12:02;;;;;;;6.60;3.88;;;14.20;57.10;;;;;;4989902;28;20221;-57
2022/07/02 02:14:33;;;;;;;6.78;4.40;;;14.20;57.10;;;;;;4990125;28;20273;-56
2022/07/02 02:17:03;;;;;;;7.47;4.20;;;14.30;57.20;;;;;;4990209;28;20225;-58
2022/07/02 02:19:34;;;;;;;7.60;4.40;;;14.30;57.20;;;;;;4989555;28;20197;-56
2022/07/02 02:22:05;;;;;;;7.53;3.95;;;14.30;57.20;;;;;;4989701;28;20209;-59
2022/07/02 02:24:37;;;;;;;8.63;4.53;;;14.40;57.30;;;;;;4989571;28;20198;-52
2022/07/02 02:27:08;;;;;;;5.53;3.97;;;14.40;57.20;;;;;;4989929;28;20224;-54
2022/07/02 02:29:39;;;;;;;7.40;4.30;;;14.40;57.20;;;;;;4991106;28;20198;-53
2022/07/02 02:32:10;;;;;;;5.47;3.80;;;14.40;57.20;;;;;;4993359;28;20198;-55
2022/07/02 02:34:41;;;;;;;6.18;4.00;;;14.40;57.10;;;;;;4993737;28;20209;-57
2022/07/02 02:37:11;;;;;;;7.85;4.20;;;14.50;57.20;;;;;;4993338;28;20236;-56
2022/07/02 02:39:44;;;;;;;5.53;4.07;;;14.50;57.10;;;;;;4993382;28;20209;-54
2022/07/02 02:42:15;;;;;;;7.25;4.53;;;14.50;57.10;;;;;;4993589;28;20202;-53
2022/07/02 02:44:45;;;;;;;5.30;3.63;;;14.60;57.10;;;;;;4993530;28;20204;-56
2022/07/02 02:47:17;;;;;;;6.72;4.28;;;14.60;57.10;;;;;;4993398;28;20289;-58
2022/07/02 02:49:47;;;;;;;6.13;4.13;;;14.60;57.10;;;;;;4993321;28;20197;-55
2022/07/02 02:52:18;;;;;;;6.78;3.83;;;14.70;57.10;;;;;;4993325;28;20209;-58
2022/07/02 02:54:51;;;;;;;5.90;3.75;;;14.70;57.10;;;;;;4980012;28;20198;-58
2022/07/02 02:57:21;;;;;;;6.38;3.60;;;14.80;57.10;;;;;;4973763;28;20202;-55
2022/07/02 02:59:52;;;;;;;5.97;3.50;;;14.80;57.10;;;;;;4973678;28;20198;-58
2022/07/02 03:02:23;;;;;;;5.43;3.38;;;14.80;57.10;;;;;;4973630;28;20615;-57
2022/07/02 03:04:53;;;;;;;5.93;4.00;;;14.90;57.10;;;;;;4973770;28;20209;-56
2022/07/02 03:07:24;;;;;;;4.97;3.92;;;14.90;57.00;;;;;;4973812;28;20205;-55
2022/07/02 03:09:57;;;;;;;6.38;3.85;;;14.90;57.00;;;;;;4987958;28;20201;-53
2022/07/02 03:12:27;;;;;;;5.50;4.20;;;14.90;57.00;;;;;;4993080;28;20228;-54
2022/07/02 03:14:58;;;;;;;7.90;4.07;;;15.00;57.00;;;;;;4992784;28;20194;-57
2022/07/02 03:17:29;;;;;;;6.00;3.25;;;15.00;57.00;;;;;;4992668;28;20201;-55
2022/07/02 03:20:00;;;;;;;5.35;3.67;;;15.00;57.00;;;;;;4992972;28;20220;-53
2022/07/02 03:22:30;;;;;;;5.35;3.45;;;15.00;57.10;;;;;;4992839;28;20202;-50
2022/07/02 03:25:03;;;;;;;6.05;3.80;;;15.10;57.10;;;;;;4992141;28;20204;-57
2022/07/02 03:27:34;;;;;;;5.22;3.90;;;15.10;57.70;;;;;;4992409;28;20209;-51
2022/07/02 03:30:04;;;;;;;5.25;3.53;;;15.10;57.10;;;;;;4992061;28;20226;-57
2022/07/02 03:32:35;;;;;;;6.13;3.50;;;15.20;57.10;;;;;;4992446;28;20194;-57
2022/07/02 03:35:06;;;;;;;5.18;3.60;;;15.20;57.10;;;;;;4992978;28;20210;-54
2022/07/02 03:37:37;;;;;;;4.55;3.50;;;15.20;57.10;;;;;;4992423;28;20201;-54
2022/07/02 03:40:11;;;;;;;5.28;3.53;;;15.20;57.10;;;;;;4991483;28;20221;-54
2022/07/02 03:42:41;;;;;;;6.20;3.75;;;15.30;57.10;;;;;;4992330;28;20201;-57
2022/07/02 03:45:13;;;;;;;4.78;3.15;;;15.30;57.10;;;;;;4992405;28;20201;-54
2022/07/02 03:47:43;;;;;;;5.68;3.47;;;15.30;57.10;;;;;;4992254;28;20205;-55
2022/07/02 03:50:14;;;;;;;6.53;4.10;;;15.40;57.00;;;;;;4992258;28;20226;-57
2022/07/02 03:52:45;;;;;;;5.43;3.72;;;15.40;57.00;;;;;;4992422;28;20681;-55
2022/07/02 03:55:17;;;;;;;4.57;3.30;;;15.40;57.00;;;;;;4991643;28;20213;-53
2022/07/02 03:57:48;;;;;;;5.53;4.00;;;15.40;57.00;;;;;;4991843;28;20208;-55
2022/07/02 04:00:19;;;;;;;5.90;3.72;;;15.50;57.00;;;;;;4991666;28;20222;-55
2022/07/02 04:02:50;;;;;;;6.93;3.92;;;15.50;57.00;;;;;;4991962;28;20201;-55
2022/07/02 04:05:21;;;;;;;6.93;3.60;;;15.50;57.00;;;;;;4992123;28;20646;-57
2022/07/02 04:07:51;;;;;;;5.50;3.75;;;15.50;56.90;;;;;;4992597;28;20194;-50
2022/07/02 04:10:24;;;;;;;6.65;3.50;;;15.50;56.90;;;;;;4991312;28;20229;-51
2022/07/02 04:12:55;;;;;;;7.07;3.92;;;15.60;56.90;;;;;;4991844;28;20518;-57
2022/07/02 04:15:26;;;;;;;6.38;3.70;;;15.60;56.90;;;;;;4991903;28;20212;-54
2022/07/02 04:17:56;;;;;;;8.60;4.25;;;15.60;56.90;;;;;;4988542;28;20425;-53
2022/07/02 04:20:28;;;;;;;5.15;3.55;;;15.60;56.90;;;;;;4991726;28;20591;-53
2022/07/02 04:22:58;;;;;;;6.20;3.55;;;15.70;56.90;;;;;;4992105;28;20256;-56
2022/07/02 04:25:31;;;;;;;5.05;3.38;;;15.70;57.00;;;;;;4991345;28;20653;-53
2022/07/02 04:28:02;;;;;;;6.85;4.53;;;15.70;56.90;;;;;;4991475;28;20198;-57
2022/07/02 04:30:33;;;;;;;6.25;3.88;;;15.70;56.90;;;;;;4991175;28;20221;-53
2022/07/02 04:33:03;;;;;;;6.93;4.20;;;15.70;56.90;;;;;;4991646;28;20307;-54
2022/07/02 04:35:34;;;;;;;7.32;3.97;;;15.70;56.90;;;;;;4991824;28;20216;-54
2022/07/02 04:38:05;;;;;;;7.22;4.13;;;15.70;56.90;;;;;;4991402;28;20264;-51
2022/07/02 04:40:38;;;;;;;4.75;3.35;;;15.70;56.80;;;;;;4991198;28;20685;-56
2022/07/02 04:43:08;;;;;;;6.88;3.97;;;15.70;56.80;;;;;;4991330;28;20197;-54
2022/07/02 04:45:39;;;;;;;7.38;4.63;;;15.70;56.80;;;;;;4991201;28;20198;-53
2022/07/02 04:48:10;;;;;;;10.60;4.90;;;15.70;56.90;;;;;;4991245;28;20225;-55
2022/07/02 04:50:41;;;;;;;9.77;4.82;;;15.70;57.50;;;;;;4991281;28;20240;-55
2022/07/02 04:53:11;;;;;;;10.55;6.30;;;15.80;59.10;;;;;;4991095;28;20209;-48
2022/07/02 04:55:44;;;;;;;14.18;7.88;;;15.90;58.40;;;;;;4990456;28;20645;-50
2022/07/02 04:58:15;;;;;;;22.52;10.15;;;15.90;58.00;;;;;;4990859;28;20212;-50
2022/07/02 05:00:45;;;;;;;20.63;13.02;;;15.90;57.40;;;;;;4990547;28;20218;-51
2022/07/02 05:03:16;;;;;;;18.88;11.13;;;15.90;56.80;;;;;;4985514;28;20191;-52
2022/07/02 05:05:47;;;;;;;23.52;16.42;;;15.90;57.60;;;;;;4971478;28;20194;-53
2022/07/02 05:08:23;;;;;;;24.83;14.75;;;15.80;56.40;;;;;;4971766;28;20269;-53
2022/07/02 05:10:55;;;;;;;22.27;13.48;;;15.80;55.70;;;;;;4987656;28;20220;-50
2022/07/02 05:13:26;;;;;;;19.35;11.80;;;15.70;55.20;;;;;;4990921;28;20804;-52
2022/07/02 05:15:57;;;;;;;19.77;10.90;;;15.70;55.10;;;;;;4990550;28;20621;-50
2022/07/02 05:18:28;;;;;;;19.10;10.65;;;15.60;55.00;;;;;;4990649;28;20288;-52
2022/07/02 05:20:58;;;;;;;19.60;12.52;;;15.50;54.80;;;;;;4990620;28;20229;-51
2022/07/02 05:23:29;;;;;;;23.40;12.40;;;15.50;54.70;;;;;;4990513;28;20204;-50
2022/07/02 05:26:02;;;;;;;23.17;12.40;;;15.40;54.80;;;;;;4990206;28;20237;-51
2022/07/02 05:28:32;;;;;;;26.02;14.68;;;15.40;54.60;;;;;;4990398;28;20208;-53
2022/07/02 05:31:03;;;;;;;20.40;12.57;;;15.30;54.50;;;;;;4990107;28;20591;-52
2022/07/02 06:35:56;;;;;;;13.00;6.18;;;14.10;55.40;;;;;;5130830;23;20240;-43
2022/07/02 06:38:26;;;;;;;9.10;5.93;;;14.10;55.90;;;;;;5013181;28;20204;-43
2022/07/02 06:40:57;;;;;;;10.05;5.95;;;14.10;56.10;;;;;;5012833;28;20221;-44
2022/07/02 06:43:28;;;;;;;11.32;6.32;;;14.10;56.30;;;;;;5012799;28;20255;-45
2022/07/02 06:45:59;;;;;;;9.70;5.65;;;14.10;56.30;;;;;;5012196;28;20660;-44
2022/07/02 06:48:30;;;;;;;7.55;5.57;;;14.10;56.30;;;;;;5012248;28;20223;-43
2022/07/02 06:51:02;;;;;;;11.63;6.05;;;14.20;56.40;;;;;;5011881;28;20315;-44
2022/07/02 06:53:33;;;;;;;9.95;5.75;;;14.20;56.40;;;;;;5012403;28;20216;-44
2022/07/02 06:56:04;;;;;;;12.32;5.75;;;14.20;56.40;;;;;;5012466;28;20232;-44
2022/07/02 06:58:34;;;;;;;10.95;5.90;;;14.20;56.40;;;;;;5012505;28;20196;-44
2022/07/02 07:01:05;;;;;;;8.38;5.75;;;14.20;56.40;;;;;;5012163;28;20219;-45
2022/07/02 07:03:36;;;;;;;9.63;5.38;;;14.20;56.50;;;;;;5012436;28;20193;-45
2022/07/02 07:06:08;;;;;;;9.32;5.30;;;14.20;56.50;;;;;;5003857;28;20194;-44
2022/07/02 07:08:39;;;;;;;8.13;4.97;;;14.30;56.50;;;;;;4992857;28;20201;-44
2022/07/02 07:11:10;;;;;;;9.27;4.97;;;14.30;56.50;;;;;;4992982;28;20224;-44
2022/07/02 07:13:40;;;;;;;9.20;5.13;;;14.30;56.50;;;;;;4992579;28;20701;-45
2022/07/02 07:16:11;;;;;;;7.25;5.07;;;14.20;56.50;;;;;;4993840;28;20572;-44
2022/07/02 07:18:42;;;;;;;7.13;4.72;;;14.20;56.40;;;;;;5012291;28;20212;-45
2022/07/02 07:21:14;;;;;;;7.75;5.50;;;14.20;56.40;;;;;;5011751;28;20684;-45
2022/07/02 07:23:45;;;;;;;10.07;5.07;;;14.30;56.50;;;;;;5012306;28;20197;-45
2022/07/02 07:26:16;;;;;;;9.18;5.13;;;14.30;56.40;;;;;;5012183;28;20291;-44
2022/07/02 07:28:47;;;;;;;7.40;5.22;;;14.30;56.40;;;;;;5012339;28;20676;-45
2022/07/02 07:31:20;;;;;;;10.13;5.45;;;14.30;56.40;;;;;;5011950;28;20969;-45
2022/07/02 07:33:51;;;;;;;11.02;5.50;;;14.30;56.40;;;;;;4998810;28;20194;-44
2022/07/02 07:36:24;;;;;;;8.63;6.00;;;14.30;56.40;;;;;;5007271;28;20193;-47
2022/07/02 07:38:55;;;;;;;9.80;5.97;;;14.30;56.40;;;;;;5012021;28;20204;-48
2022/07/02 07:41:26;;;;;;;6.90;4.93;;;14.30;56.40;;;;;;5011881;28;20217;-48
2022/07/02 07:43:57;;;;;;;7.88;5.95;;;14.20;56.40;;;;;;5011738;28;20204;-49
2022/07/02 07:46:28;;;;;;;9.27;5.60;;;14.20;56.40;;;;;;5011685;28;20200;-48
2022/07/02 07:48:59;;;;;;;12.15;5.63;;;14.20;56.40;;;;;;5011662;28;20208;-49
2022/07/02 07:51:31;;;;;;;8.10;5.55;;;14.20;56.50;;;;;;5010992;28;20208;-48
2022/07/02 07:54:02;;;;;;;8.25;5.30;;;14.20;56.50;;;;;;5011538;28;20197;-47
2022/07/02 07:56:33;;;;;;;7.50;4.85;;;14.20;56.50;;;;;;5011393;28;20717;-46
2022/07/02 07:59:03;;;;;;;8.55;5.82;;;14.10;56.50;;;;;;5011789;28;20743;-44
2022/07/02 08:01:34;;;;;;;6.50;5.07;;;14.10;56.50;;;;;;5011635;28;20225;-44
2022/07/02 08:04:05;;;;;;;8.15;5.78;;;14.10;56.60;;;;;;5011767;28;20653;-45
2022/07/02 08:06:38;;;;;;;6.55;4.97;;;14.10;56.50;;;;;;5010850;28;20197;-45
2022/07/02 08:09:08;;;;;;;7.07;5.35;;;14.10;56.60;;;;;;5009434;28;20209;-45
2022/07/02 08:11:39;;;;;;;9.05;5.63;;;14.10;56.60;;;;;;4991333;28;20225;-45
2022/07/02 08:14:10;;;;;;;7.60;5.13;;;14.10;56.60;;;;;;4991589;28;20201;-45
2022/07/02 08:16:41;;;;;;;8.15;5.88;;;14.10;56.60;;;;;;4997492;28;20213;-44
2022/07/02 08:19:11;;;;;;;9.60;5.97;;;14.10;56.70;;;;;;5011029;28;20197;-44
2022/07/02 08:21:44;;;;;;;7.90;5.63;;;14.10;56.70;;;;;;5010664;28;20216;-44
2022/07/02 08:24:15;;;;;;;8.68;5.25;;;14.10;56.70;;;;;;5010734;28;20652;-44
2022/07/02 08:26:46;;;;;;;9.60;5.90;;;14.10;56.70;;;;;;5010238;28;20252;-45
2022/07/02 08:29:16;;;;;;;7.90;4.90;;;14.00;56.70;;;;;;5011290;28;20703;-44
2022/07/02 08:31:47;;;;;;;7.00;5.13;;;14.00;56.70;;;;;;5011240;28;20217;-45
2022/07/02 08:34:18;;;;;;;7.32;5.40;;;14.00;56.80;;;;;;5023154;22;20279;-58
2022/07/02 08:36:51;;;;;;;7.60;5.45;;;14.00;56.80;;;;;;5010544;28;20572;-54
2022/07/02 08:39:21;;;;;;;5.63;4.68;;;13.90;56.80;;;;;;5010802;28;20612;-59
2022/07/02 08:41:57;;;;;;;6.30;5.07;;;14.00;56.80;;;;;;5010733;28;20217;-57
2022/07/02 08:44:35;;;;;;;6.85;5.05;;;13.90;56.80;;;;;;5010682;28;20204;-59
2022/07/02 08:47:17;;;;;;;6.18;4.63;;;13.90;56.80;;;;;;5010582;28;20315;-59
2022/07/02 08:49:49;;;;;;;7.40;4.97;;;13.90;56.80;;;;;;4997290;28;20198;-58
2022/07/02 08:52:23;;;;;;;7.35;5.13;;;13.90;57.00;;;;;;5004872;28;20189;-60
2022/07/02 08:54:54;;;;;;;8.45;4.97;;;13.90;56.90;;;;;;5004617;28;20201;-56
2022/07/02 08:57:28;;;;;;;8.00;4.80;;;13.90;56.90;;;;;;4991293;28;20204;-56
2022/07/02 09:00:13;;;;;;;8.00;4.82;;;13.90;56.90;;;;;;4992249;28;20209;-58
2022/07/02 09:02:45;;;;;;;6.88;4.22;;;13.90;56.90;;;;;;4990869;28;20224;-58
2022/07/02 09:05:17;;;;;;;7.80;5.13;;;13.90;56.90;;;;;;4991455;28;20219;-59
2022/07/02 09:07:57;;;;;;;6.75;4.68;;;13.80;56.90;;;;;;5010786;28;20221;-54
2022/07/02 09:10:32;;;;;;;7.30;4.78;;;13.80;56.90;;;;;;5004440;28;20275;-58
2022/07/02 09:13:04;;;;;;;5.38;4.32;;;13.80;56.90;;;;;;4991828;28;20696;-60
2022/07/02 09:15:36;;;;;;;8.85;5.30;;;13.80;56.90;;;;;;4992374;28;20414;-55
2022/07/02 09:18:07;;;;;;;6.82;4.10;;;13.80;57.50;;;;;;5008826;28;20204;-59
2022/07/02 09:20:38;;;;;;;6.03;4.32;;;13.80;57.00;;;;;;5011406;28;20223;-58
2022/07/02 09:23:20;;;;;;;6.35;4.53;;;13.80;57.00;;;;;;5010795;28;20196;-59
2022/07/02 09:25:51;;;;;;;6.07;4.57;;;13.70;57.00;;;;;;5010910;28;20185;-60
2022/07/02 09:28:22;;;;;;;5.85;4.47;;;13.70;57.00;;;;;;5010865;28;20228;-60
2022/07/02 09:31:23;;;;;;;6.75;4.40;;;13.70;57.00;;;;;;5009949;28;20569;-59
2022/07/02 09:33:55;;;;;;;6.63;4.63;;;13.70;57.10;;;;;;4980403;28;20723;-58
2022/07/02 09:36:26;;;;;;;6.85;4.50;;;13.60;57.00;;;;;;4992055;28;20225;-56
2022/07/02 09:38:59;;;;;;;5.40;4.07;;;13.70;57.10;;;;;;4993240;28;20691;-60
2022/07/02 09:41:29;;;;;;;5.68;4.30;;;13.70;57.70;;;;;;4995994;28;20705;-59
2022/07/02 09:44:03;;;;;;;4.82;3.60;;;13.60;57.20;;;;;;4994986;28;20190;-59
2022/07/02 09:46:34;;;;;;;5.35;3.75;;;13.70;57.30;;;;;;4999987;28;20197;-59
2022/07/02 09:49:11;;;;;;;6.30;4.35;;;13.70;57.40;;;;;;5015398;28;20232;-58
2022/07/02 09:51:51;;;;;;;5.28;3.80;;;13.70;57.30;;;;;;5014821;28;20208;-60
2022/07/02 09:54:26;;;;;;;6.88;4.65;;;13.70;57.30;;;;;;5015439;28;20589;-59
2022/07/02 09:56:58;;;;;;;6.75;4.47;;;13.70;57.30;;;;;;5013846;28;20204;-59
2022/07/02 09:59:29;;;;;;;6.10;4.18;;;13.60;57.20;;;;;;5014958;28;20205;-59
2022/07/02 10:01:59;;;;;;;4.47;3.55;;;13.60;57.20;;;;;;5012778;28;20216;-60
2022/07/02 10:04:35;;;;;;;4.43;3.17;;;13.60;58.40;;;;;;5010316;28;20200;-59
2022/07/02 10:07:11;;;;;;;5.32;3.80;;;13.70;59.40;;;;;;5014076;28;20200;-60
2022/07/02 10:09:44;;;;;;;8.32;3.90;;;13.80;59.40;;;;;;5015006;28;20203;-59
2022/07/02 10:12:19;;;;;;;8.55;3.90;;;13.80;59.50;;;;;;5014787;28;20193;-58
2022/07/02 10:14:55;;;;;;;5.80;3.50;;;13.80;59.40;;;;;;5013952;28;20193;-60
2022/07/02 10:17:27;;;;;;;8.35;3.97;;;13.80;59.40;;;;;;5013884;28;20266;-58
2022/07/02 10:19:59;;;;;;;5.82;3.50;;;13.80;59.50;;;;;;5014310;28;20204;-58
2022/07/02 10:22:30;;;;;;;7.15;4.00;;;13.80;59.50;;;;;;5014996;28;20224;-60
2022/07/02 10:25:04;;;;;;;7.28;4.50;;;13.80;59.50;;;;;;5013895;28;20201;-59
2022/07/02 10:27:35;;;;;;;6.57;3.95;;;13.80;59.50;;;;;;5013849;28;20279;-60
2022/07/02 10:30:06;;;;;;;5.55;3.95;;;13.70;59.40;;;;;;5013970;28;20223;-55
2022/07/02 10:32:43;;;;;;;6.05;3.72;;;13.70;59.90;;;;;;5014346;28;20200;-59
2022/07/02 10:35:16;;;;;;;7.35;4.15;;;13.80;59.90;;;;;;5025521;23;20229;-46
2022/07/02 10:37:47;;;;;;;5.75;3.63;;;13.70;59.20;;;;;;4996162;28;20193;-46
2022/07/02 10:40:22;;;;;;;4.63;3.42;;;13.70;59.10;;;;;;4993407;28;20225;-45
2022/07/02 10:42:57;;;;;;;4.85;3.58;;;13.70;59.10;;;;;;4993907;28;20193;-43
2022/07/02 10:45:28;;;;;;;6.13;3.50;;;13.70;59.00;;;;;;4993697;28;20235;-44
2022/07/02 10:48:02;;;;;;;6.20;4.03;;;13.70;59.00;;;;;;4993419;28;20233;-44
2022/07/02 10:50:44;;;;;;;5.47;3.65;;;13.70;58.90;;;;;;4992918;28;20225;-43
2022/07/02 10:53:17;;;;;;;5.47;4.13;;;13.70;58.90;;;;;;4994711;28;20201;-45
2022/07/02 10:56:02;;;;;;;4.40;3.75;;;13.60;58.90;;;;;;4994297;28;20631;-43
2022/07/02 10:58:34;;;;;;;4.85;3.65;;;13.60;59.00;;;;;;4993971;28;20240;-44
2022/07/02 11:01:16;;;;;;;6.38;3.30;;;13.60;59.10;;;;;;4993048;28;20233;-43
2022/07/02 11:03:57;;;;;;;5.25;3.50;;;13.60;59.10;;;;;;4993253;28;20202;-45
2022/07/02 11:06:28;;;;;;;4.45;3.70;;;13.60;58.90;;;;;;4994204;28;20194;-45
2022/07/02 11:09:01;;;;;;;5.95;3.47;;;13.60;58.90;;;;;;4993046;28;20229;-44
2022/07/02 11:11:59;;;;;;;5.00;3.58;;;13.50;58.80;;;;;;4993632;28;20216;-44
2022/07/02 11:14:32;;;;;;;3.88;3.10;;;13.50;58.80;;;;;;4993578;28;20201;-44
2022/07/02 11:17:04;;;;;;;5.78;3.55;;;13.50;58.70;;;;;;4993847;28;20206;-44
2022/07/02 11:19:35;;;;;;;6.03;3.75;;;13.50;58.60;;;;;;4992285;28;20228;-45
2022/07/02 11:22:06;;;;;;;3.53;3.10;;;13.50;58.60;;;;;;4993714;28;20589;-44
2022/07/02 11:24:37;;;;;;;4.53;3.20;;;13.50;58.60;;;;;;4993800;28;20194;-44
2022/07/02 11:27:10;;;;;;;4.43;3.40;;;13.50;58.50;;;;;;4993339;28;20193;-44
2022/07/02 11:29:41;;;;;;;5.75;3.03;;;13.50;58.40;;;;;;4993554;28;20236;-44
2022/07/02 11:32:12;;;;;;;3.85;3.10;;;13.50;58.40;;;;;;4993390;28;20593;-44
2022/07/02 11:34:42;;;;;;;4.13;3.50;;;13.50;58.30;;;;;;4985997;28;20198;-44
2022/07/02 11:37:23;;;;;;;3.72;2.80;;;13.40;58.30;;;;;;4973781;28;20286;-45
2022/07/02 11:39:53;;;;;;;3.78;2.88;;;13.40;58.30;;;;;;4973553;28;20205;-44
2022/07/02 11:42:38;;;;;;;4.18;3.00;;;13.40;58.30;;;;;;4977174;28;20553;-44
2022/07/02 11:45:10;;;;;;;3.65;2.95;;;13.40;58.30;;;;;;4993262;28;20197;-44
2022/07/02 11:47:46;;;;;;;4.93;2.90;;;13.40;58.20;;;;;;4992407;28;20561;-44
2022/07/02 11:50:28;;;;;;;2.88;2.47;;;13.40;58.20;;;;;;4993069;28;20222;-43
2022/07/02 11:52:59;;;;;;;2.97;2.58;;;13.40;58.20;;;;;;4992539;28;20189;-44
2022/07/02 11:55:29;;;;;;;4.32;3.00;;;13.40;58.20;;;;;;4993321;28;20201;-44
2022/07/02 11:58:02;;;;;;;4.93;3.00;;;13.40;58.20;;;;;;4993367;28;20228;-45
2022/07/02 12:00:36;;;;;;;3.30;2.55;;;13.40;58.20;;;;;;4993396;28;20684;-43
2022/07/02 12:03:16;;;;;;;3.28;2.78;;;13.40;58.20;;;;;;4990986;28;20201;-44
2022/07/02 12:05:54;;;;;;;4.05;2.78;;;13.40;58.10;;;;;;4992096;28;20563;-44
2022/07/02 12:08:25;;;;;;;3.25;2.30;;;13.40;58.10;;;;;;4991473;28;20225;-44
2022/07/02 12:10:56;;;;;;;3.38;2.88;;;13.40;58.10;;;;;;4991493;28;20345;-44
2022/07/02 12:13:28;;;;;;;4.13;2.80;;;13.40;58.10;;;;;;4991634;28;20198;-44
2022/07/02 12:15:59;;;;;;;3.67;2.75;;;13.40;58.10;;;;;;4991482;28;20201;-44
2022/07/02 12:18:30;;;;;;;3.33;2.60;;;13.40;58.10;;;;;;4991706;28;20284;-43
2022/07/02 12:21:11;;;;;;;3.97;2.55;;;13.40;58.10;;;;;;4991623;28;20630;-44
2022/07/02 12:23:49;;;;;;;4.00;2.58;;;13.40;58.00;;;;;;4991794;28;20661;-44
2022/07/02 12:26:27;;;;;;;3.38;2.53;;;13.30;58.00;;;;;;4991137;28;20197;-43
2022/07/02 12:31:50;;;;;;;2.67;1.83;;;13.30;57.90;;;;;;4991483;28;20348;-43
2022/07/02 12:34:22;;;;;;;3.35;2.50;;;13.30;57.90;;;;;;4991560;28;20189;-43
2022/07/02 12:36:58;;;;;;;3.63;2.55;;;13.30;57.90;;;;;;4991151;28;20201;-43
2022/07/02 12:39:40;;;;;;;3.65;2.58;;;13.30;57.90;;;;;;4991104;28;20196;-42
2022/07/02 12:42:19;;;;;;;3.05;2.33;;;13.30;57.90;;;;;;4990988;28;20208;-44
2022/07/02 12:45:00;;;;;;;2.70;2.25;;;13.30;57.90;;;;;;4991298;28;20731;-43
2022/07/02 12:47:32;;;;;;;3.92;2.38;;;13.30;57.90;;;;;;4991022;28;20205;-43
2022/07/02 12:50:06;;;;;;;3.35;2.28;;;13.30;57.80;;;;;;4991128;28;20225;-43
2022/07/02 12:52:48;;;;;;;3.35;2.38;;;13.30;57.80;;;;;;4991308;28;20765;-42
2022/07/02 12:55:26;;;;;;;3.00;2.55;;;13.30;57.80;;;;;;4991194;28;20201;-43
2022/07/02 12:57:57;;;;;;;3.67;2.60;;;13.30;57.80;;;;;;4971357;28;20206;-43
2022/07/02 13:00:31;;;;;;;3.40;2.30;;;13.30;57.80;;;;;;4971523;28;20218;-43
2022/07/02 13:03:03;;;;;;;4.90;2.75;;;13.30;57.80;;;;;;4971509;28;20232;-43
2022/07/02 13:05:35;;;;;;;3.15;2.08;;;13.30;57.80;;;;;;4971177;28;20730;-43
2022/07/02 13:08:06;;;;;;;5.05;2.60;;;13.30;57.80;;;;;;4971195;28;20210;-43
2022/07/02 13:10:37;;;;;;;3.05;2.20;;;13.30;57.80;;;;;;4971651;28;20411;-43
2022/07/02 13:13:08;;;;;;;3.65;2.30;;;13.30;57.80;;;;;;4990391;28;20197;-42
2022/07/02 13:15:41;;;;;;;3.28;2.40;;;13.30;57.80;;;;;;4990593;28;20205;-43
2022/07/02 13:18:12;;;;;;;2.67;2.13;;;13.20;57.80;;;;;;4990216;28;20285;-44
2022/07/02 13:20:45;;;;;;;3.13;2.30;;;13.20;57.80;;;;;;4990346;28;20224;-44
2022/07/02 13:23:16;;;;;;;3.63;2.40;;;13.20;57.80;;;;;;4990348;28;20284;-44
2022/07/02 13:25:52;;;;;;;3.78;2.47;;;13.20;57.80;;;;;;4986857;28;20244;-44
2022/07/02 13:28:22;;;;;;;4.20;2.20;;;13.20;57.70;;;;;;4990236;28;20222;-43
2022/07/02 13:30:55;;;;;;;3.55;2.13;;;13.20;57.70;;;;;;4990335;28;20228;-42
2022/07/02 13:33:26;;;;;;;4.18;2.20;;;13.20;57.60;;;;;;4990573;28;20691;-43
2022/07/02 13:35:57;;;;;;;4.35;2.30;;;13.20;57.60;;;;;;4990912;28;20250;-43
2022/07/02 13:38:27;;;;;;;3.72;2.17;;;13.20;57.60;;;;;;4990664;28;20201;-43
2022/07/02 13:40:58;;;;;;;4.07;2.30;;;13.30;57.70;;;;;;4990188;28;20692;-43
2022/07/02 13:43:29;;;;;;;2.58;1.95;;;13.20;57.60;;;;;;4990583;28;20336;-42
2022/07/02 13:46:01;;;;;;;2.97;2.20;;;13.20;57.60;;;;;;4990626;28;20299;-44
2022/07/02 13:48:32;;;;;;;4.10;2.20;;;13.20;57.60;;;;;;4990330;28;20221;-43
2022/07/02 13:51:03;;;;;;;2.83;2.10;;;13.20;57.60;;;;;;4989864;28;20260;-44
2022/07/02 13:53:33;;;;;;;3.22;2.40;;;13.20;57.60;;;;;;4990015;28;20189;-44
2022/07/02 13:56:04;;;;;;;5.18;2.35;;;13.20;57.60;;;;;;4990197;28;20201;-44
2022/07/02 13:58:35;;;;;;;3.00;2.17;;;13.20;57.60;;;;;;4990114;28;20197;-44
2022/07/02 14:01:08;;;;;;;3.00;2.20;;;13.20;57.60;;;;;;4989716;28;20216;-44
2022/07/02 14:03:38;;;;;;;3.17;2.30;;;13.10;57.60;;;;;;4990214;28;20194;-45
2022/07/02 14:06:09;;;;;;;3.25;2.28;;;13.20;57.60;;;;;;4990368;28;20681;-44
2022/07/02 14:08:40;;;;;;;3.00;2.10;;;13.20;57.60;;;;;;4990264;28;20716;-44
2022/07/02 14:11:11;;;;;;;2.97;1.88;;;13.20;57.60;;;;;;4989857;28;20859;-43
2022/07/02 14:13:42;;;;;;;3.42;1.90;;;13.20;57.60;;;;;;4990331;28;20201;-43
2022/07/02 14:16:15;;;;;;;2.60;1.70;;;13.20;57.60;;;;;;4990323;28;20198;-43
2022/07/02 14:18:45;;;;;;;2.75;1.95;;;13.20;57.50;;;;;;4990363;28;20217;-44